• Join FlightAware (Why Join?)
  • Login
  • US Flag 
06:43PM EDT


 

Airport Tracker/Info


-or-


 

Live Flight TrackerFlight Track Log ✈ CSH9127 ✈ 28-Sep-2013 ✈ ZSSS / SHA - ZBHH / HET

Flight Track Log - Related Links

Times and Time Zones

All times are in EDT time to prevent confusion due to time zone crossing. See the CSH9127 flight status page for this flight to view local times or setup timezone preferences in your user account.

Time Position Orientation Groundspeed Altitude Reporting Facility
EDT Latitude Longitude Course Direction KTS MPH feet Rate Location/Type
01:22AM 33.2308 119.5709 324° Northwest  Level Estimated
01:23AM 33.3004 119.5087 323° Northwest  Level Estimated
01:24AM 33.3699 119.4464 323° Northwest  Level Estimated
01:25AM 33.4394 119.3840 323° Northwest  Level Estimated
01:26AM 33.5088 119.3215 323° Northwest  Level Estimated
01:27AM 33.5782 119.2589 323° Northwest  Level Estimated
01:28AM 33.6476 119.1962 323° Northwest  Level Estimated
01:29AM 33.7170 119.1333 323° Northwest  Level Estimated
01:30AM 33.7863 119.0704 323° Northwest  Level Estimated
01:31AM 33.8556 119.0074 323° Northwest  Level Estimated
01:32AM 33.9248 118.9443 323° Northwest  Level Estimated
01:33AM 33.9941 118.8811 323° Northwest  Level Estimated
01:34AM 34.0633 118.8177 323° Northwest  Level Estimated
01:35AM 34.1324 118.7543 323° Northwest  Level Estimated
01:36AM 34.2016 118.6908 323° Northwest  Level Estimated
01:37AM 34.2707 118.6271 323° Northwest  Level Estimated
01:38AM 34.3397 118.5634 323° Northwest  Level Estimated
01:39AM 34.4088 118.4995 323° Northwest  Level Estimated
01:40AM 34.4778 118.4356 323° Northwest  Level Estimated
01:41AM 34.5467 118.3715 323° Northwest  Level Estimated
01:42AM 34.6157 118.3074 323° Northwest  Level Estimated
01:43AM 34.6846 118.2431 323° Northwest  Level Estimated
01:44AM 34.7534 118.1787 322° Northwest  Level Estimated
01:45AM 34.8223 118.1142 322° Northwest  Level Estimated
01:46AM 34.8910 118.0496 322° Northwest  Level Estimated
01:47AM 34.9598 117.9849 322° Northwest  Level Estimated
01:48AM 35.0285 117.9201 322° Northwest  Level Estimated
01:49AM 35.0972 117.8552 322° Northwest  Level Estimated
01:50AM 35.1659 117.7902 322° Northwest  Level Estimated
01:51AM 35.2345 117.7250 322° Northwest  Level Estimated
01:52AM 35.3031 117.6598 322° Northwest  Level Estimated
01:53AM 35.3717 117.5944 322° Northwest  Level Estimated
01:54AM 35.4402 117.5290 322° Northwest  Level Estimated
01:55AM 35.5087 117.4634 322° Northwest  Level Estimated
01:56AM 35.5771 117.3977 322° Northwest  Level Estimated
01:57AM 35.6455 117.3319 322° Northwest  Level Estimated
01:58AM 35.7139 117.2660 322° Northwest  Level Estimated
01:59AM 35.7822 117.1999 322° Northwest  Level Estimated
02:00AM 35.8505 117.1338 322° Northwest  Level Estimated
02:01AM 35.9188 117.0675 322° Northwest  Level Estimated
02:02AM 35.9870 117.0011 322° Northwest  Level Estimated
02:03AM 36.0552 116.9346 322° Northwest  Level Estimated
02:04AM 36.1234 116.8680 322° Northwest  Level Estimated
02:05AM 36.1915 116.8013 322° Northwest  Level Estimated
02:06AM 36.2596 116.7345 322° Northwest  Level Estimated
02:07AM 36.3276 116.6675 322° Northwest  Level Estimated
02:08AM 36.3956 116.6004 322° Northwest  Level Estimated
02:09AM 36.4636 116.5333 322° Northwest  Level Estimated
02:10AM 36.5315 116.4660 321° Northwest  Level Estimated
02:11AM 36.5994 116.3985 321° Northwest  Level Estimated
02:12AM 36.6673 116.3310 321° Northwest  Level Estimated
02:13AM 36.7351 116.2633 321° Northwest  Level Estimated
02:14AM 36.8029 116.1955 321° Northwest  Level Estimated
02:15AM 36.8706 116.1276 321° Northwest  Level Estimated
02:16AM 36.9383 116.0596 321° Northwest  Level Estimated
02:17AM 37.0060 115.9915 321° Northwest  Level Estimated
02:18AM 37.0736 115.9232 321° Northwest  Level Estimated
02:19AM 37.1412 115.8548 321° Northwest  Level Estimated
02:20AM 37.2088 115.7863 321° Northwest  Level Estimated
02:21AM 37.2763 115.7177 321° Northwest  Level Estimated
02:22AM 37.3438 115.6489 321° Northwest  Level Estimated
02:23AM 37.4112 115.5800 321° Northwest  Level Estimated
02:24AM 37.4786 115.5110 321° Northwest  Level Estimated
02:25AM 37.5459 115.4419 321° Northwest  Level Estimated
02:26AM 37.6132 115.3727 321° Northwest  Level Estimated
02:27AM 37.6805 115.3033 321° Northwest  Level Estimated
02:28AM 37.7477 115.2338 321° Northwest  Level Estimated
02:29AM 37.8149 115.1641 321° Northwest  Level Estimated
02:30AM 37.8821 115.0944 321° Northwest  Level Estimated
02:31AM 37.9492 115.0245 321° Northwest  Level Estimated
02:32AM 38.0162 114.9545 321° Northwest  Level Estimated
02:33AM 38.0832 114.8844 321° Northwest  Level Estimated
02:34AM 38.1502 114.8141 320° Northwest  Level Estimated
02:35AM 38.2172 114.7437 320° Northwest  Level Estimated
02:36AM 38.2841 114.6731 320° Northwest  Level Estimated
02:37AM 38.3509 114.6025 320° Northwest  Level Estimated
02:38AM 38.4177 114.5317 320° Northwest  Level Estimated
02:39AM 38.4845 114.4608 320° Northwest  Level Estimated
02:40AM 38.5512 114.3897 320° Northwest  Level Estimated
02:41AM 38.6179 114.3186 320° Northwest  Level Estimated
02:42AM 38.6845 114.2472 320° Northwest  Level Estimated
02:43AM 38.7511 114.1758 320° Northwest  Level Estimated
02:44AM 38.8177 114.1042 320° Northwest  Level Estimated
02:45AM 38.8842 114.0325 320° Northwest  Level Estimated
02:46AM 38.9506 113.9606 320° Northwest  Level Estimated
02:47AM 39.0171 113.8886 320° Northwest  Level Estimated
02:48AM 39.0834 113.8165 320° Northwest  Level Estimated
02:49AM 39.1498 113.7443 320° Northwest  Level Estimated
02:50AM 39.2160 113.6719 320° Northwest  Level Estimated
02:51AM 39.2823 113.5993 320° Northwest  Level Estimated
02:52AM 39.3485 113.5267 320° Northwest  Level Estimated
02:53AM 39.4146 113.4539 320° Northwest  Level Estimated
02:54AM 39.4807 113.3809 320° Northwest  Level Estimated
02:55AM 39.5468 113.3079 320° Northwest  Level Estimated
02:56AM 39.6128 113.2346 319° Northwest  Level Estimated
02:57AM 39.6788 113.1613 319° Northwest  Level Estimated
02:58AM 39.7447 113.0878 319° Northwest  Level Estimated
02:59AM 39.8106 113.0141 319° Northwest  Level Estimated
03:00AM 39.8764 112.9404 319° Northwest  Level Estimated
03:01AM 39.9422 112.8664 319° Northwest  Level Estimated
03:02AM 40.0079 112.7924 319° Northwest  Level Estimated
03:03AM 40.0736 112.7181 319° Northwest  Level Estimated
03:04AM 40.1392 112.6438 319° Northwest  Level Estimated
03:05AM 40.2048 112.5693 319° Northwest  Level Estimated
03:06AM 40.2704 112.4947 319° Northwest  Level Estimated
03:07AM 40.3359 112.4199 319° Northwest  Level Estimated
03:08AM 40.4013 112.3449 319° Northwest  Level Estimated
03:09AM 40.4667 112.2699 319° Northwest  Level Estimated
03:10AM 40.5321 112.1946 319° Northwest  Level Estimated
03:11AM 40.5974 112.1193 319° Northwest  Level Estimated
03:12AM 40.6626 112.0438 319° Northwest  Level Estimated
03:13AM 40.7278 111.9681 319° Northwest  Level Estimated
03:14AM 40.7930 111.8923 319° Northwest  Level Estimated
03:15AM 40.8514 111.8241 319° Northwest  Level Estimated
03:16AM 40.8514 111.8241 49° Northeast  Level Estimated
03:17AM 40.8514 111.8241 49° Northeast  Level Estimated
03:18AM 40.8514 111.8241 49° Northeast  Level Estimated
03:19AM 40.8514 111.8241 49° Northeast  Level Estimated
03:20AM 40.8514 111.8241 49° Northeast  Level Estimated
03:21AM 40.8514 111.8241 49° Northeast  Level Estimated
03:22AM 40.8514 111.8241 49° Northeast  Level Estimated
03:23AM 40.8514 111.8241 49° Northeast  Level Estimated
03:24AM 40.8514 111.8241 49° Northeast  Level Estimated
03:25AM 40.8514 111.8241 49° Northeast  Level Estimated
03:26AM 40.8514 111.8241 49° Northeast  Level Estimated
03:27AM 40.8514 111.8241 49° Northeast  Level Estimated
03:28AM 40.8514 111.8241 49° Northeast  Level Estimated
03:29AM 40.8514 111.8241 49° Northeast  Level Estimated
03:30AM 40.8514 111.8241 49° Northeast  Level Estimated
03:31AM 40.8514 111.8241 49° Northeast  Level Estimated
03:32AM 40.8514 111.8241 49° Northeast  Level Estimated
03:33AM 40.8514 111.8241 49° Northeast  Level Estimated
03:34AM 40.8514 111.8241 49° Northeast  Level Estimated
03:35AM 40.8514 111.8241 49° Northeast  Level Estimated
03:36AM 40.8514 111.8241 49° Northeast  Level Estimated
03:37AM 40.8514 111.8241 49° Northeast  Level Estimated
03:38AM 40.8514 111.8241 49° Northeast  Level Estimated
03:39AM 40.8514 111.8241 49° Northeast  Level Estimated
03:40AM 40.8514 111.8241 49° Northeast  Level Estimated
03:41AM 40.8514 111.8241 49° Northeast  Level Estimated
03:42AM 40.8514 111.8241 49° Northeast  Level Estimated
03:43AM 40.8514 111.8241 49° Northeast  Level Estimated
03:44AM 40.8514 111.8241 49° Northeast  Level Estimated
03:45AM 40.8514 111.8241 49° Northeast  Level Estimated
03:46AM 40.8514 111.8241 49° Northeast  Level Estimated
03:47AM 40.8514 111.8241 49° Northeast  Level Estimated
03:48AM 40.8514 111.8241 49° Northeast  Level Estimated
03:49AM 40.8514 111.8241 49° Northeast  Level Estimated